Terminal Aerodrome Forecast
Issued by NWS

Home | Current Version | Previous Version | Text Only | Print | Product List | Glossary On
Versions: 1 2 3 4 5 6 7 8 9 10 11 12 13 14 15 16 17 18 19 20 21 22 23 24 25 26 27 28 29 30 31 32 33 34
000
FTAK31 PANC 190531
TAFAEN
TAF
PAEN 190531Z 1906/2006 36007KT 6SM -RA BR BKN008 OVC015
      TEMPO 1906/1910 SCT008 BKN016
     FM192000 VRB06KT P6SM -RA SCT015 BKN030
     FM200200 20008KT P6SM -RA SCT025 BKN045=

USA.gov is the U.S. government's official web portal to all federal, state and local government web resources and services.